createdAt,value
2023-04-08T00:00:54.030Z,9.86
2023-04-08T00:03:21.893Z,10.06
2023-04-08T00:05:49.535Z,9.57
2023-04-08T00:08:16.976Z,9.54
2023-04-08T00:10:44.642Z,10.03
2023-04-08T00:13:12.160Z,8.90
2023-04-08T00:15:39.596Z,9.27
2023-04-08T00:18:07.556Z,9.05
2023-04-08T00:20:35.361Z,9.35
2023-04-08T00:23:02.884Z,9.65
2023-04-08T00:25:31.375Z,9.19
2023-04-08T00:27:58.778Z,9.44
2023-04-08T00:30:28.093Z,9.10
2023-04-08T00:32:55.926Z,9.03
2023-04-08T00:35:23.578Z,9.31
2023-04-08T00:37:51.180Z,9.36
2023-04-08T00:40:18.927Z,9.44
2023-04-08T00:42:46.589Z,9.30
2023-04-08T00:45:14.290Z,8.88
2023-04-08T00:47:42.055Z,8.82
2023-04-08T00:50:10.850Z,9.22
2023-04-08T00:52:38.376Z,9.35
2023-04-08T00:55:06.605Z,9.45
2023-04-08T00:57:34.410Z,9.52
2023-04-08T01:00:01.939Z,9.32
2023-04-08T01:02:46.130Z,9.07
2023-04-08T01:05:21.163Z,9.21
2023-04-08T01:07:50.256Z,9.08
2023-04-08T01:10:21.535Z,9.17
2023-04-08T01:12:56.956Z,9.25
2023-04-08T01:15:26.464Z,8.83
2023-04-08T01:17:56.330Z,8.43
2023-04-08T01:20:25.340Z,8.68
2023-04-08T01:23:07.354Z,8.55
2023-04-08T01:25:36.889Z,8.68
2023-04-08T01:28:07.637Z,8.73
2023-04-08T01:30:35.915Z,8.66
2023-04-08T01:33:04.309Z,8.42
2023-04-08T01:35:32.307Z,8.38
2023-04-08T01:38:00.606Z,8.52
2023-04-08T01:40:28.018Z,8.57
2023-04-08T01:42:59.251Z,8.74
2023-04-08T01:45:28.296Z,8.16
2023-04-08T01:47:57.212Z,8.57
2023-04-08T01:50:25.813Z,8.65
2023-04-08T01:52:55.302Z,8.93
2023-04-08T01:55:23.105Z,8.54
2023-04-08T01:57:52.285Z,8.59
2023-04-08T02:00:23.035Z,9.03
2023-04-08T02:02:52.149Z,8.92
2023-04-08T02:05:20.012Z,8.32
2023-04-08T02:07:48.531Z,8.81
2023-04-08T02:10:16.362Z,8.02
2023-04-08T02:12:44.440Z,8.34
2023-04-08T02:15:13.290Z,8.70
2023-04-08T02:17:51.693Z,8.85
2023-04-08T02:20:51.442Z,8.80
2023-04-08T02:23:24.686Z,9.17
2023-04-08T02:25:53.410Z,8.59
2023-04-08T02:28:21.239Z,9.19
2023-04-08T02:30:50.595Z,8.65
2023-04-08T02:33:20.433Z,8.89
2023-04-08T02:35:50.093Z,8.62
2023-04-08T02:38:17.929Z,8.31
2023-04-08T02:40:45.702Z,8.39
2023-04-08T02:43:13.121Z,8.39
2023-04-08T02:45:44.547Z,8.59
2023-04-08T02:48:12.125Z,7.99
2023-04-08T02:50:40.679Z,8.21
2023-04-08T02:53:09.342Z,8.60
2023-04-08T02:55:37.071Z,8.86
2023-04-08T02:58:04.464Z,8.68
2023-04-08T03:00:32.144Z,8.53
2023-04-08T03:02:59.922Z,8.07
2023-04-08T03:05:27.557Z,8.26
2023-04-08T03:07:55.420Z,8.48
2023-04-08T03:10:22.856Z,8.23
2023-04-08T03:12:50.375Z,8.89
2023-04-08T03:15:18.268Z,8.82
2023-04-08T03:17:45.913Z,8.92
2023-04-08T03:20:13.483Z,9.25
2023-04-08T03:22:41.197Z,9.15
2023-04-08T03:25:09.085Z,9.50
2023-04-08T03:27:36.552Z,8.86
2023-04-08T03:30:04.625Z,9.18
2023-04-08T03:32:33.074Z,9.18
2023-04-08T03:35:00.538Z,8.94
2023-04-08T03:37:28.193Z,8.73
2023-04-08T03:39:56.166Z,9.18
2023-04-08T03:42:23.582Z,9.52
2023-04-08T03:44:51.390Z,9.46
2023-04-08T03:47:18.782Z,9.64
2023-04-08T03:49:46.161Z,9.75
2023-04-08T03:52:13.832Z,9.35
2023-04-08T03:54:41.276Z,8.98
2023-04-08T03:57:08.680Z,8.74
2023-04-08T03:59:36.799Z,8.82
2023-04-08T04:02:04.269Z,9.50
2023-04-08T04:04:32.077Z,9.56
2023-04-08T04:06:59.518Z,9.09
2023-04-08T04:09:27.080Z,9.22
2023-04-08T04:11:54.753Z,9.00
2023-04-08T04:14:22.116Z,8.93
2023-04-08T04:16:49.514Z,9.17
2023-04-08T04:19:18.424Z,8.88
2023-04-08T04:21:45.816Z,8.88
2023-04-08T04:24:14.167Z,8.96
2023-04-08T04:26:42.106Z,8.84
2023-04-08T04:29:09.505Z,9.30
2023-04-08T04:31:37.326Z,9.15
2023-04-08T04:34:05.012Z,9.18
2023-04-08T04:36:32.420Z,9.30
2023-04-08T04:38:59.825Z,9.28
2023-04-08T04:41:27.749Z,8.83
2023-04-08T04:43:55.327Z,8.79
2023-04-08T04:46:22.884Z,8.98
2023-04-08T04:48:51.498Z,8.44
2023-04-08T04:51:19.052Z,8.85
2023-04-08T04:53:46.447Z,8.90
2023-04-08T04:56:14.098Z,8.85
2023-04-08T04:58:42.072Z,8.45
2023-04-08T05:01:09.517Z,8.57
2023-04-08T05:03:37.251Z,8.17
2023-04-08T05:06:04.767Z,8.20
2023-04-08T05:08:32.157Z,8.17
2023-04-08T05:11:02.174Z,8.47
2023-04-08T05:13:29.835Z,8.61
2023-04-08T05:15:57.253Z,8.67
2023-04-08T05:18:25.252Z,8.40
2023-04-08T05:20:52.800Z,8.59
2023-04-08T05:23:20.338Z,8.58
2023-04-08T05:25:47.995Z,8.63
2023-04-08T05:28:15.580Z,8.43
2023-04-08T05:30:43.018Z,8.53
2023-04-08T05:33:11.058Z,8.49
2023-04-08T05:35:38.596Z,8.22
2023-04-08T05:38:06.758Z,8.07
2023-04-08T05:40:34.508Z,8.26
2023-04-08T05:43:01.901Z,7.94
2023-04-08T05:45:30.617Z,7.96
2023-04-08T05:47:58.333Z,8.43
2023-04-08T05:50:25.800Z,7.68
2023-04-08T05:52:53.200Z,8.46
2023-04-08T05:55:20.989Z,8.46
2023-04-08T05:57:48.403Z,8.66
2023-04-08T06:00:16.965Z,8.54
2023-04-08T06:02:44.816Z,7.70
2023-04-08T06:05:12.353Z,7.86
2023-04-08T06:07:39.826Z,8.12
2023-04-08T06:10:08.371Z,8.23
2023-04-08T06:12:37.345Z,7.75
2023-04-08T06:15:06.090Z,8.14
2023-04-08T06:17:36.454Z,7.44
2023-04-08T06:20:05.379Z,7.98
2023-04-08T06:22:33.046Z,8.10
2023-04-08T06:25:00.873Z,7.70
2023-04-08T06:27:28.494Z,7.54
2023-04-08T06:29:56.093Z,8.00
2023-04-08T06:32:23.913Z,7.86
2023-04-08T06:34:51.541Z,7.68
2023-04-08T06:37:18.908Z,7.41
2023-04-08T06:39:46.626Z,7.58
2023-04-08T06:42:14.037Z,7.57
2023-04-08T06:44:43.914Z,7.80
2023-04-08T06:47:11.586Z,6.66
2023-04-08T06:49:38.980Z,7.39
2023-04-08T06:52:06.995Z,7.63
2023-04-08T06:54:34.765Z,7.57
2023-04-08T06:57:02.171Z,7.71
2023-04-08T06:59:30.484Z,7.44
2023-04-08T07:01:58.326Z,7.12
2023-04-08T07:04:26.053Z,6.40
2023-04-08T07:06:53.529Z,7.34
2023-04-08T07:09:21.220Z,7.29
2023-04-08T07:11:48.628Z,7.66
2023-04-08T07:14:16.051Z,7.46
2023-04-08T07:16:43.794Z,7.60
2023-04-08T07:19:11.850Z,7.70
2023-04-08T07:21:39.208Z,6.85
2023-04-08T07:24:07.292Z,6.35
2023-04-08T07:26:34.762Z,7.41
2023-04-08T07:29:02.196Z,7.95
2023-04-08T07:31:29.910Z,8.11
2023-04-08T07:33:57.346Z,7.96
2023-04-08T07:36:25.152Z,7.09
2023-04-08T07:38:52.862Z,7.85
2023-04-08T07:41:21.164Z,8.09
2023-04-08T07:43:48.560Z,8.05
2023-04-08T07:46:16.331Z,7.79
2023-04-08T07:48:43.789Z,7.89
2023-04-08T07:51:11.716Z,7.20
2023-04-08T07:53:40.496Z,7.86
2023-04-08T07:56:15.457Z,7.93
2023-04-08T07:58:43.326Z,8.11
2023-04-08T08:01:18.989Z,7.82
2023-04-08T08:03:48.013Z,7.95
2023-04-08T08:06:15.811Z,8.00
2023-04-08T08:08:43.389Z,8.04
2023-04-08T08:11:11.119Z,8.05
2023-04-08T08:13:38.655Z,8.22
2023-04-08T08:16:09.148Z,8.30
2023-04-08T08:18:40.851Z,8.27
2023-04-08T08:21:08.920Z,8.00
2023-04-08T08:23:37.840Z,8.28
2023-04-08T08:26:12.227Z,7.19
2023-04-08T08:28:40.388Z,7.04
2023-04-08T08:31:07.914Z,7.79
2023-04-08T08:33:35.761Z,7.67
2023-04-08T08:36:05.623Z,7.57
2023-04-08T08:38:33.574Z,8.03
2023-04-08T08:41:01.658Z,8.11
2023-04-08T08:43:29.355Z,8.20
2023-04-08T08:45:56.839Z,7.51
2023-04-08T08:48:24.403Z,7.88
2023-04-08T08:50:52.079Z,6.84
2023-04-08T08:53:20.685Z,7.66
2023-04-08T08:58:19.523Z,7.25
2023-04-08T09:00:47.024Z,8.20
2023-04-08T09:03:23.553Z,8.50
2023-04-08T09:05:56.191Z,8.13
2023-04-08T09:08:25.602Z,8.12
2023-04-08T09:10:54.470Z,7.97
2023-04-08T09:13:25.005Z,8.02
2023-04-08T09:16:05.170Z,8.30
2023-04-08T09:18:33.666Z,8.45
2023-04-08T09:21:02.379Z,8.17
2023-04-08T09:23:47.742Z,7.39
2023-04-08T09:26:22.218Z,7.98
2023-04-08T09:29:10.993Z,7.52
2023-04-08T09:31:42.511Z,8.03
2023-04-08T09:34:12.008Z,8.16
2023-04-08T09:36:39.431Z,8.22
2023-04-08T09:39:07.716Z,7.87
2023-04-08T09:41:36.204Z,7.84
2023-04-08T09:44:06.603Z,7.83
2023-04-08T09:46:43.725Z,8.42
2023-04-08T09:49:13.416Z,7.52
2023-04-08T09:51:45.599Z,7.59
2023-04-08T09:54:14.953Z,6.78
2023-04-08T09:57:03.609Z,6.82
2023-04-08T09:59:33.999Z,7.51
2023-04-08T10:02:07.552Z,6.89
2023-04-08T10:04:39.622Z,7.39
2023-04-08T10:07:07.583Z,7.86
2023-04-08T10:09:35.697Z,7.96
2023-04-08T10:12:04.429Z,7.85
2023-04-08T10:14:32.620Z,7.91
2023-04-08T10:17:26.622Z,7.47
2023-04-08T10:19:54.194Z,7.72
2023-04-08T10:22:33.849Z,7.54
2023-04-08T10:25:32.910Z,7.93
2023-04-08T10:28:01.984Z,7.82
2023-04-08T10:30:29.253Z,7.74
2023-04-08T10:32:57.607Z,7.31
2023-04-08T10:35:32.009Z,7.47
2023-04-08T10:37:59.842Z,7.48
2023-04-08T10:40:27.931Z,7.78
2023-04-08T10:42:56.391Z,7.81
2023-04-08T10:45:24.116Z,8.07
2023-04-08T10:47:52.035Z,7.79
2023-04-08T10:50:20.506Z,7.99
2023-04-08T10:52:53.658Z,8.06
2023-04-08T10:55:25.553Z,8.06
2023-04-08T10:57:54.176Z,7.82
2023-04-08T11:00:36.960Z,7.88
2023-04-08T11:03:06.709Z,8.24
2023-04-08T11:05:36.817Z,8.32
2023-04-08T11:08:05.156Z,8.34
2023-04-08T11:10:38.558Z,8.10
2023-04-08T11:13:12.944Z,7.44
2023-04-08T11:15:40.736Z,7.75
2023-04-08T11:18:09.160Z,8.02
2023-04-08T11:20:37.232Z,7.75
2023-04-08T11:23:04.638Z,7.92
2023-04-08T11:25:32.427Z,8.31
2023-04-08T11:28:00.453Z,7.74
2023-04-08T11:30:28.967Z,8.66
2023-04-08T11:32:57.021Z,8.48
2023-04-08T11:35:24.657Z,8.57
2023-04-08T11:37:52.690Z,8.08
2023-04-08T11:40:22.261Z,7.92
2023-04-08T11:42:53.035Z,7.76
2023-04-08T11:45:21.586Z,8.32
2023-04-08T11:47:49.214Z,8.57
2023-04-08T11:50:26.923Z,8.38
2023-04-08T11:52:55.486Z,7.94
2023-04-08T11:55:30.746Z,8.43
2023-04-08T11:58:04.331Z,8.67
2023-04-08T12:00:33.155Z,8.72
2023-04-08T12:03:00.937Z,9.11
2023-04-08T12:05:28.444Z,8.79
2023-04-08T12:07:56.503Z,9.09
2023-04-08T12:10:25.288Z,9.41
2023-04-08T12:12:52.843Z,9.43
2023-04-08T12:15:20.909Z,9.08
2023-04-08T12:17:48.832Z,9.24
2023-04-08T12:20:17.357Z,9.36
2023-04-08T12:22:44.802Z,9.43
2023-04-08T12:25:12.469Z,9.54
2023-04-08T12:27:39.852Z,9.17
2023-04-08T12:30:07.936Z,9.25
2023-04-08T12:32:35.637Z,8.68
2023-04-08T12:35:03.104Z,8.51
2023-04-08T12:37:30.849Z,8.16
2023-04-08T12:39:58.555Z,8.70
2023-04-08T12:42:26.532Z,8.32
2023-04-08T12:44:54.022Z,8.80
2023-04-08T12:47:22.252Z,9.40
2023-04-08T12:49:51.102Z,9.45
2023-04-08T12:52:18.843Z,8.98
2023-04-08T12:54:46.568Z,9.25
2023-04-08T12:57:14.070Z,9.63
2023-04-08T12:59:41.705Z,8.84
2023-04-08T13:02:09.415Z,9.47
2023-04-08T13:04:36.789Z,8.63
2023-04-08T13:07:05.071Z,9.17
2023-04-08T13:09:32.827Z,9.53
2023-04-08T13:12:00.255Z,9.53
2023-04-08T13:14:27.676Z,9.46
2023-04-08T13:16:55.502Z,9.65
2023-04-08T13:19:22.945Z,9.20
2023-04-08T13:21:50.364Z,9.79
2023-04-08T13:24:18.242Z,9.85
2023-04-08T13:26:46.116Z,9.50
2023-04-08T13:29:13.545Z,8.94
2023-04-08T13:31:41.482Z,8.94
2023-04-08T13:34:08.965Z,9.11
2023-04-08T13:36:36.860Z,8.84
2023-04-08T13:39:04.633Z,9.41
2023-04-08T13:41:32.045Z,9.40
2023-04-08T13:43:59.444Z,9.47
2023-04-08T13:46:27.320Z,9.36
2023-04-08T13:48:54.871Z,9.03
2023-04-08T13:51:22.346Z,8.38
2023-04-08T13:53:50.031Z,8.28
2023-04-08T13:56:17.419Z,9.19
2023-04-08T13:58:49.668Z,8.50
2023-04-08T14:01:20.265Z,8.50
2023-04-08T14:03:49.948Z,8.94
2023-04-08T14:06:17.407Z,9.26
2023-04-08T14:08:44.850Z,9.17
2023-04-08T14:11:12.801Z,9.33
2023-04-08T14:13:40.435Z,9.50
2023-04-08T14:16:07.885Z,9.65
2023-04-08T14:18:35.626Z,9.13
2023-04-08T14:21:03.749Z,9.42
2023-04-08T14:23:31.188Z,9.21
2023-04-08T14:25:58.894Z,9.30
2023-04-08T14:28:28.451Z,9.15
2023-04-08T14:30:56.177Z,9.45
2023-04-08T14:33:24.002Z,9.14
2023-04-08T14:35:53.011Z,8.71
2023-04-08T14:38:21.426Z,8.70
2023-04-08T14:40:49.348Z,9.20
2023-04-08T14:43:16.776Z,9.20
2023-04-08T14:45:45.072Z,9.19
2023-04-08T14:48:12.946Z,8.83
2023-04-08T14:50:40.346Z,8.46
2023-04-08T14:53:07.831Z,8.93
2023-04-08T14:55:35.497Z,9.21
2023-04-08T14:58:03.015Z,9.45
2023-04-08T15:00:30.451Z,7.99
2023-04-08T15:02:58.942Z,8.55
2023-04-08T15:05:26.627Z,9.14
2023-04-08T15:07:54.225Z,9.13
2023-04-08T15:10:21.854Z,9.17
2023-04-08T15:12:49.229Z,9.92
2023-04-08T15:15:16.707Z,9.80
2023-04-08T15:17:44.450Z,10.16
2023-04-08T15:20:12.204Z,10.04
2023-04-08T15:22:39.813Z,10.42
2023-04-08T15:25:07.954Z,9.22
2023-04-08T15:27:36.383Z,10.23
2023-04-08T15:30:10.690Z,10.23
2023-04-08T15:32:41.729Z,10.54
2023-04-08T15:35:09.963Z,10.76
2023-04-08T15:37:37.415Z,9.90
2023-04-08T15:40:05.645Z,10.18
2023-04-08T15:42:33.200Z,9.90
2023-04-08T15:45:00.594Z,10.35
2023-04-08T15:47:28.468Z,9.80
2023-04-08T15:49:56.164Z,9.62
2023-04-08T15:52:23.600Z,9.69
2023-04-08T15:54:51.356Z,9.41
2023-04-08T15:57:18.741Z,9.32
2023-04-08T15:59:46.134Z,9.56
2023-04-08T16:02:13.947Z,9.68
2023-04-08T16:04:42.813Z,10.18
2023-04-08T16:07:10.420Z,9.92
2023-04-08T16:09:37.849Z,10.10
2023-04-08T16:12:05.557Z,9.85
2023-04-08T16:14:33.025Z,9.28
2023-04-08T16:17:00.379Z,9.20
2023-04-08T16:19:28.331Z,9.73
2023-04-08T16:21:55.978Z,9.99
2023-04-08T16:24:23.408Z,9.61
2023-04-08T16:26:51.214Z,9.41
2023-04-08T16:29:18.701Z,10.07
2023-04-08T16:31:46.109Z,9.68
2023-04-08T16:34:13.824Z,9.77
2023-04-08T16:36:41.240Z,9.44
2023-04-08T16:39:08.678Z,10.22
2023-04-08T16:41:36.755Z,10.32
2023-04-08T16:44:04.162Z,10.62
2023-04-08T16:46:31.541Z,10.29
2023-04-08T16:48:59.192Z,10.01
2023-04-08T16:51:26.736Z,10.08
2023-04-08T16:53:56.298Z,10.57
2023-04-08T16:56:26.153Z,10.88
2023-04-08T16:58:53.656Z,11.12
2023-04-08T17:01:21.121Z,11.07
2023-04-08T17:03:50.305Z,11.16
2023-04-08T17:06:18.335Z,11.25
2023-04-08T17:08:46.053Z,10.82
2023-04-08T17:11:15.054Z,10.80
2023-04-08T17:13:43.523Z,10.47
2023-04-08T17:16:16.222Z,9.68
2023-04-08T17:18:45.128Z,8.32
2023-04-08T17:21:14.080Z,8.63
2023-04-08T17:23:41.691Z,9.16
2023-04-08T17:26:10.066Z,9.04
2023-04-08T17:28:38.016Z,9.51
2023-04-08T17:31:05.435Z,9.83
2023-04-08T17:33:34.068Z,9.69
2023-04-08T17:36:01.584Z,10.06
2023-04-08T17:38:29.107Z,9.84
2023-04-08T17:40:56.801Z,10.03
2023-04-08T17:43:24.254Z,10.41
2023-04-08T17:45:51.997Z,10.56
2023-04-08T17:48:20.003Z,10.69
2023-04-08T17:50:47.613Z,11.00
2023-04-08T17:53:15.618Z,11.12
2023-04-08T17:55:43.294Z,11.19
2023-04-08T17:58:10.704Z,11.31
2023-04-08T18:00:38.124Z,11.19
2023-04-08T18:03:06.039Z,11.42
2023-04-08T18:05:33.569Z,11.57
2023-04-08T18:08:01.013Z,11.60
2023-04-08T18:10:28.835Z,11.65
2023-04-08T18:13:10.285Z,11.69
2023-04-08T18:15:38.898Z,11.73
2023-04-08T18:18:06.329Z,11.72
2023-04-08T18:20:37.150Z,11.88
2023-04-08T18:23:05.069Z,11.78
2023-04-08T18:25:32.696Z,11.92
2023-04-08T18:28:00.273Z,11.83
2023-04-08T18:30:28.020Z,11.76
2023-04-08T18:32:55.643Z,11.78
2023-04-08T18:35:24.474Z,11.76
2023-04-08T18:37:52.211Z,11.72
2023-04-08T18:40:20.256Z,11.82
2023-04-08T18:42:47.637Z,11.75
2023-04-08T18:45:15.442Z,11.68
2023-04-08T18:47:42.902Z,11.67
2023-04-08T18:50:10.803Z,11.79
2023-04-08T18:52:39.020Z,11.84
2023-04-08T18:55:06.579Z,11.77
2023-04-08T18:57:34.546Z,11.67
2023-04-08T19:00:02.273Z,11.60
2023-04-08T19:02:29.739Z,11.79
2023-04-08T19:04:58.131Z,11.59
2023-04-08T19:07:26.356Z,11.83
2023-04-08T19:09:59.992Z,11.80
2023-04-08T19:12:27.823Z,11.73
2023-04-08T19:14:55.228Z,11.74
2023-04-08T19:17:22.620Z,11.82
2023-04-08T19:19:50.376Z,11.82
2023-04-08T19:22:17.856Z,11.63
2023-04-08T19:24:45.249Z,11.76
2023-04-08T19:27:14.434Z,11.85
2023-04-08T19:29:41.906Z,11.79
2023-04-08T19:32:09.616Z,11.62
2023-04-08T19:34:38.533Z,11.75
2023-04-08T19:37:07.205Z,11.66
2023-04-08T19:39:34.877Z,11.62
2023-04-08T19:42:02.605Z,11.74
2023-04-08T19:44:29.991Z,11.75
2023-04-08T19:46:57.910Z,11.66
2023-04-08T19:49:25.643Z,11.73
2023-04-08T19:51:53.103Z,11.77
2023-04-08T19:54:20.540Z,11.72
2023-04-08T19:56:48.415Z,11.65
2023-04-08T19:59:16.269Z,11.64
2023-04-08T20:01:43.890Z,11.69
2023-04-08T20:04:11.819Z,11.70
2023-04-08T20:06:39.309Z,11.47
2023-04-08T20:09:06.949Z,11.55
2023-04-08T20:11:34.731Z,11.49
2023-04-08T20:14:03.657Z,11.50
2023-04-08T20:16:31.972Z,11.40
2023-04-08T20:18:59.826Z,11.53
2023-04-08T20:21:27.848Z,11.56
2023-04-08T20:23:55.732Z,11.53
2023-04-08T20:26:23.468Z,11.49
2023-04-08T20:28:50.942Z,11.53
2023-04-08T20:31:19.313Z,11.54
2023-04-08T20:33:47.032Z,11.54
2023-04-08T20:36:14.479Z,11.56
2023-04-08T20:38:42.493Z,11.55
2023-04-08T20:41:10.540Z,11.41
2023-04-08T20:43:39.435Z,11.49
2023-04-08T20:46:07.527Z,11.45
2023-04-08T20:48:36.109Z,11.45
2023-04-08T20:51:03.560Z,11.44
2023-04-08T20:53:31.469Z,11.43
2023-04-08T20:55:59.191Z,11.35
2023-04-08T20:58:26.835Z,11.33
2023-04-08T21:00:54.377Z,11.16
2023-04-08T21:03:22.387Z,11.12
2023-04-08T21:05:50.221Z,11.35
2023-04-08T21:08:17.860Z,11.36
2023-04-08T21:10:45.535Z,11.43
2023-04-08T21:13:13.014Z,11.46
2023-04-08T21:15:40.509Z,11.49
2023-04-08T21:18:11.087Z,11.40
2023-04-08T21:20:41.414Z,11.45
2023-04-08T21:23:09.113Z,11.45
2023-04-08T21:25:36.515Z,11.45
2023-04-08T21:28:03.917Z,11.32
2023-04-08T21:30:31.555Z,11.32
2023-04-08T21:32:58.931Z,11.30
2023-04-08T21:35:26.531Z,11.44
2023-04-08T21:37:54.158Z,11.36
2023-04-08T21:40:21.686Z,11.42
2023-04-08T21:42:49.132Z,11.40
2023-04-08T21:45:17.025Z,11.43
2023-04-08T21:47:44.585Z,11.29
2023-04-08T21:50:12.022Z,11.41
2023-04-08T21:52:41.577Z,11.30
2023-04-08T21:55:10.483Z,11.39
2023-04-08T21:57:37.953Z,11.42
2023-04-08T22:00:13.200Z,11.35
2023-04-08T22:02:42.997Z,11.35
2023-04-08T22:05:11.523Z,11.30
2023-04-08T22:07:38.998Z,11.29
2023-04-08T22:10:07.416Z,11.23
2023-04-08T22:12:35.122Z,11.28
2023-04-08T22:15:03.033Z,11.24
2023-04-08T22:17:30.463Z,11.26
2023-04-08T22:19:58.131Z,11.29
2023-04-08T22:22:25.504Z,11.23
2023-04-08T22:24:52.902Z,11.21
2023-04-08T22:27:20.545Z,11.40
2023-04-08T22:29:47.958Z,11.37
2023-04-08T22:32:15.563Z,11.30
2023-04-08T22:34:43.282Z,11.17
2023-04-08T22:37:10.762Z,11.28
2023-04-08T22:39:38.134Z,11.17
2023-04-08T22:42:05.813Z,11.23
2023-04-08T22:44:33.342Z,11.39
2023-04-08T22:47:00.743Z,11.35
2023-04-08T22:49:28.419Z,11.37
2023-04-08T22:51:55.844Z,11.11
2023-04-08T22:54:23.255Z,11.27
2023-04-08T22:56:51.060Z,11.20
2023-04-08T22:59:18.452Z,11.21
2023-04-08T23:01:46.153Z,11.09
2023-04-08T23:04:13.909Z,11.32
2023-04-08T23:06:41.349Z,11.18
2023-04-08T23:09:08.743Z,11.23
2023-04-08T23:11:36.378Z,11.32
2023-04-08T23:14:03.822Z,11.40
2023-04-08T23:16:31.640Z,11.39
2023-04-08T23:18:59.310Z,11.45
2023-04-08T23:21:27.085Z,11.37
2023-04-08T23:23:54.581Z,11.37
2023-04-08T23:26:22.382Z,11.35
2023-04-08T23:28:49.965Z,11.23
2023-04-08T23:31:17.607Z,11.38
2023-04-08T23:33:45.549Z,11.48
2023-04-08T23:36:13.119Z,11.38
2023-04-08T23:38:40.748Z,11.39
2023-04-08T23:41:08.415Z,11.42
2023-04-08T23:43:36.453Z,11.24
2023-04-08T23:46:03.917Z,11.35
2023-04-08T23:48:31.577Z,11.39
2023-04-08T23:50:58.941Z,11.50
2023-04-08T23:53:26.336Z,11.54
2023-04-08T23:55:54.028Z,11.47
2023-04-08T23:58:21.496Z,11.33
